sensor_id;sensor_type;location;lat;lon;timestamp;temperature;humidity
35796;DHT22;21916;52.428;13.302;2022-08-18T00:01:20;24.40;96.90
35796;DHT22;21916;52.428;13.302;2022-08-18T00:03:48;24.20;97.40
35796;DHT22;21916;52.428;13.302;2022-08-18T00:06:15;24.20;97.70
35796;DHT22;21916;52.428;13.302;2022-08-18T00:08:41;24.20;97.80
35796;DHT22;21916;52.428;13.302;2022-08-18T00:11:07;24.20;98.20
35796;DHT22;21916;52.428;13.302;2022-08-18T00:13:34;24.20;98.40
35796;DHT22;21916;52.428;13.302;2022-08-18T00:16:00;24.10;98.60
35796;DHT22;21916;52.428;13.302;2022-08-18T00:18:26;24.10;99.20
35796;DHT22;21916;52.428;13.302;2022-08-18T00:20:52;24.10;99.70
35796;DHT22;21916;52.428;13.302;2022-08-18T00:23:18;24.00;99.90
35796;DHT22;21916;52.428;13.302;2022-08-18T00:25:45;24.00;99.90
35796;DHT22;21916;52.428;13.302;2022-08-18T00:28:14;24.00;99.90
35796;DHT22;21916;52.428;13.302;2022-08-18T00:30:40;24.00;99.90
35796;DHT22;21916;52.428;13.302;2022-08-18T00:33:06;23.90;99.90
35796;DHT22;21916;52.428;13.302;2022-08-18T00:35:35;23.90;99.90
35796;DHT22;21916;52.428;13.302;2022-08-18T00:38:05;23.80;99.90
35796;DHT22;21916;52.428;13.302;2022-08-18T00:40:36;23.90;99.90
35796;DHT22;21916;52.428;13.302;2022-08-18T00:43:05;23.80;99.90
35796;DHT22;21916;52.428;13.302;2022-08-18T00:45:37;23.80;99.90
35796;DHT22;21916;52.428;13.302;2022-08-18T00:48:06;23.70;99.90
35796;DHT22;21916;52.428;13.302;2022-08-18T00:53:19;23.70;99.90
35796;DHT22;21916;52.428;13.302;2022-08-18T00:55:47;23.70;99.90
35796;DHT22;21916;52.428;13.302;2022-08-18T00:58:33;23.70;99.90
35796;DHT22;21916;52.428;13.302;2022-08-18T01:01:03;23.70;99.90
35796;DHT22;21916;52.428;13.302;2022-08-18T01:03:31;23.70;99.90
35796;DHT22;21916;52.428;13.302;2022-08-18T01:06:19;23.60;99.90
35796;DHT22;21916;52.428;13.302;2022-08-18T01:08:46;23.50;99.90
35796;DHT22;21916;52.428;13.302;2022-08-18T01:11:12;23.50;99.90
35796;DHT22;21916;52.428;13.302;2022-08-18T01:13:40;23.50;99.90
35796;DHT22;21916;52.428;13.302;2022-08-18T01:16:07;23.40;99.90
35796;DHT22;21916;52.428;13.302;2022-08-18T01:18:53;23.40;99.90
35796;DHT22;21916;52.428;13.302;2022-08-18T01:21:42;23.40;99.90
35796;DHT22;21916;52.428;13.302;2022-08-18T01:24:26;23.50;99.90
35796;DHT22;21916;52.428;13.302;2022-08-18T01:27:14;23.50;99.90
35796;DHT22;21916;52.428;13.302;2022-08-18T01:29:43;23.50;99.90
35796;DHT22;21916;52.428;13.302;2022-08-18T01:32:10;23.50;99.90
35796;DHT22;21916;52.428;13.302;2022-08-18T01:34:37;23.60;99.90
35796;DHT22;21916;52.428;13.302;2022-08-18T01:37:03;23.60;99.90
35796;DHT22;21916;52.428;13.302;2022-08-18T01:39:30;23.50;99.90
35796;DHT22;21916;52.428;13.302;2022-08-18T01:41:56;23.50;99.90
35796;DHT22;21916;52.428;13.302;2022-08-18T01:44:22;23.50;99.90
35796;DHT22;21916;52.428;13.302;2022-08-18T01:46:48;23.40;99.90
35796;DHT22;21916;52.428;13.302;2022-08-18T01:49:14;23.40;99.90
35796;DHT22;21916;52.428;13.302;2022-08-18T01:51:40;23.30;99.90
35796;DHT22;21916;52.428;13.302;2022-08-18T01:54:09;23.20;99.90
35796;DHT22;21916;52.428;13.302;2022-08-18T01:56:36;23.20;99.90
35796;DHT22;21916;52.428;13.302;2022-08-18T01:59:02;23.10;99.90
35796;DHT22;21916;52.428;13.302;2022-08-18T02:01:29;23.00;99.90
35796;DHT22;21916;52.428;13.302;2022-08-18T02:03:57;23.00;99.90
35796;DHT22;21916;52.428;13.302;2022-08-18T02:06:24;23.00;99.90
35796;DHT22;21916;52.428;13.302;2022-08-18T02:08:50;22.90;99.90
35796;DHT22;21916;52.428;13.302;2022-08-18T02:11:16;22.90;99.90
35796;DHT22;21916;52.428;13.302;2022-08-18T02:13:42;22.80;99.90
35796;DHT22;21916;52.428;13.302;2022-08-18T02:16:08;22.80;99.90
35796;DHT22;21916;52.428;13.302;2022-08-18T02:18:35;22.80;99.90
35796;DHT22;21916;52.428;13.302;2022-08-18T02:21:11;22.70;99.90
35796;DHT22;21916;52.428;13.302;2022-08-18T02:23:38;22.70;99.90
35796;DHT22;21916;52.428;13.302;2022-08-18T02:26:07;22.60;99.90
35796;DHT22;21916;52.428;13.302;2022-08-18T02:28:33;22.60;99.90
35796;DHT22;21916;52.428;13.302;2022-08-18T02:31:12;22.60;99.90
35796;DHT22;21916;52.428;13.302;2022-08-18T02:33:39;22.50;99.90
35796;DHT22;21916;52.428;13.302;2022-08-18T02:36:05;22.50;99.90
35796;DHT22;21916;52.428;13.302;2022-08-18T02:38:32;22.50;99.90
35796;DHT22;21916;52.428;13.302;2022-08-18T02:41:01;22.50;99.90
35796;DHT22;21916;52.428;13.302;2022-08-18T02:43:28;22.40;99.90
35796;DHT22;21916;52.428;13.302;2022-08-18T02:45:54;22.40;99.90
35796;DHT22;21916;52.428;13.302;2022-08-18T02:48:20;22.40;99.90
35796;DHT22;21916;52.428;13.302;2022-08-18T02:51:12;22.30;99.90
35796;DHT22;21916;52.428;13.302;2022-08-18T02:53:40;22.40;99.90
35796;DHT22;21916;52.428;13.302;2022-08-18T02:56:12;22.30;99.90
35796;DHT22;21916;52.428;13.302;2022-08-18T02:58:43;22.20;99.90
35796;DHT22;21916;52.428;13.302;2022-08-18T03:01:09;22.20;99.90
35796;DHT22;21916;52.428;13.302;2022-08-18T03:03:35;22.10;99.90
35796;DHT22;21916;52.428;13.302;2022-08-18T03:06:02;22.10;99.90
35796;DHT22;21916;52.428;13.302;2022-08-18T03:08:28;22.10;99.90
35796;DHT22;21916;52.428;13.302;2022-08-18T03:10:53;22.10;99.90
35796;DHT22;21916;52.428;13.302;2022-08-18T03:13:20;22.00;99.90
35796;DHT22;21916;52.428;13.302;2022-08-18T03:15:46;22.00;99.90
35796;DHT22;21916;52.428;13.302;2022-08-18T03:18:12;22.10;99.90
35796;DHT22;21916;52.428;13.302;2022-08-18T03:20:38;22.00;99.90
35796;DHT22;21916;52.428;13.302;2022-08-18T03:23:05;22.00;99.90
35796;DHT22;21916;52.428;13.302;2022-08-18T03:25:31;21.90;99.90
35796;DHT22;21916;52.428;13.302;2022-08-18T03:27:57;22.00;99.90
35796;DHT22;21916;52.428;13.302;2022-08-18T03:30:23;22.00;99.90
35796;DHT22;21916;52.428;13.302;2022-08-18T03:32:49;21.90;99.90
35796;DHT22;21916;52.428;13.302;2022-08-18T03:35:15;21.80;99.90
35796;DHT22;21916;52.428;13.302;2022-08-18T03:37:42;21.80;99.90
35796;DHT22;21916;52.428;13.302;2022-08-18T03:40:08;21.70;99.90
35796;DHT22;21916;52.428;13.302;2022-08-18T03:42:36;21.60;99.90
35796;DHT22;21916;52.428;13.302;2022-08-18T03:45:03;21.60;99.90
35796;DHT22;21916;52.428;13.302;2022-08-18T03:47:29;21.70;99.90
35796;DHT22;21916;52.428;13.302;2022-08-18T03:49:55;21.70;99.90
35796;DHT22;21916;52.428;13.302;2022-08-18T03:52:20;21.60;99.90
35796;DHT22;21916;52.428;13.302;2022-08-18T03:54:48;21.60;99.90
35796;DHT22;21916;52.428;13.302;2022-08-18T03:57:14;21.60;99.90
35796;DHT22;21916;52.428;13.302;2022-08-18T03:59:40;21.60;99.90
35796;DHT22;21916;52.428;13.302;2022-08-18T04:02:09;21.70;99.90
35796;DHT22;21916;52.428;13.302;2022-08-18T04:04:35;21.70;99.90
35796;DHT22;21916;52.428;13.302;2022-08-18T04:07:08;21.70;99.90
35796;DHT22;21916;52.428;13.302;2022-08-18T04:09:36;21.60;99.90
35796;DHT22;21916;52.428;13.302;2022-08-18T04:12:06;21.60;99.90
35796;DHT22;21916;52.428;13.302;2022-08-18T04:14:39;21.60;99.90
35796;DHT22;21916;52.428;13.302;2022-08-18T04:17:06;21.60;99.90
35796;DHT22;21916;52.428;13.302;2022-08-18T04:19:32;21.60;99.90
35796;DHT22;21916;52.428;13.302;2022-08-18T04:22:00;21.60;99.90
35796;DHT22;21916;52.428;13.302;2022-08-18T04:24:29;21.60;99.90
35796;DHT22;21916;52.428;13.302;2022-08-18T04:26:58;21.60;99.90
35796;DHT22;21916;52.428;13.302;2022-08-18T04:29:25;21.60;99.90
35796;DHT22;21916;52.428;13.302;2022-08-18T04:31:52;21.60;99.90
35796;DHT22;21916;52.428;13.302;2022-08-18T04:34:19;21.70;99.90
35796;DHT22;21916;52.428;13.302;2022-08-18T04:36:45;21.70;99.90
35796;DHT22;21916;52.428;13.302;2022-08-18T04:39:12;21.70;99.90
35796;DHT22;21916;52.428;13.302;2022-08-18T04:41:41;21.70;99.90
35796;DHT22;21916;52.428;13.302;2022-08-18T04:44:09;21.70;99.90
35796;DHT22;21916;52.428;13.302;2022-08-18T04:46:39;21.80;99.90
35796;DHT22;21916;52.428;13.302;2022-08-18T04:49:06;21.80;99.90
35796;DHT22;21916;52.428;13.302;2022-08-18T04:51:34;21.90;99.90
35796;DHT22;21916;52.428;13.302;2022-08-18T04:54:00;21.90;99.90
35796;DHT22;21916;52.428;13.302;2022-08-18T04:56:37;22.00;99.90
35796;DHT22;21916;52.428;13.302;2022-08-18T04:59:04;22.10;99.90
35796;DHT22;21916;52.428;13.302;2022-08-18T05:01:37;22.10;99.90
35796;DHT22;21916;52.428;13.302;2022-08-18T05:04:05;22.20;99.90
35796;DHT22;21916;52.428;13.302;2022-08-18T05:06:31;22.20;99.90
35796;DHT22;21916;52.428;13.302;2022-08-18T05:09:03;22.30;99.90
35796;DHT22;21916;52.428;13.302;2022-08-18T05:11:30;22.30;99.90
35796;DHT22;21916;52.428;13.302;2022-08-18T05:14:01;22.30;99.90
35796;DHT22;21916;52.428;13.302;2022-08-18T05:16:28;22.50;99.90
35796;DHT22;21916;52.428;13.302;2022-08-18T05:18:56;22.60;99.90
35796;DHT22;21916;52.428;13.302;2022-08-18T05:21:22;22.70;99.90
35796;DHT22;21916;52.428;13.302;2022-08-18T05:23:49;22.70;99.90
35796;DHT22;21916;52.428;13.302;2022-08-18T05:26:17;22.70;99.90
35796;DHT22;21916;52.428;13.302;2022-08-18T05:28:44;22.80;99.90
35796;DHT22;21916;52.428;13.302;2022-08-18T05:31:26;22.90;99.90
35796;DHT22;21916;52.428;13.302;2022-08-18T05:33:53;23.00;99.90
35796;DHT22;21916;52.428;13.302;2022-08-18T05:41:49;23.20;99.90
35796;DHT22;21916;52.428;13.302;2022-08-18T05:44:21;23.20;99.90
35796;DHT22;21916;52.428;13.302;2022-08-18T05:46:55;23.30;99.90
35796;DHT22;21916;52.428;13.302;2022-08-18T05:49:24;23.30;99.90
35796;DHT22;21916;52.428;13.302;2022-08-18T05:51:58;23.50;99.90
35796;DHT22;21916;52.428;13.302;2022-08-18T05:54:29;23.60;99.90
35796;DHT22;21916;52.428;13.302;2022-08-18T05:57:18;23.80;99.90
35796;DHT22;21916;52.428;13.302;2022-08-18T05:59:46;24.00;99.90
35796;DHT22;21916;52.428;13.302;2022-08-18T06:05:35;24.20;99.90
35796;DHT22;21916;52.428;13.302;2022-08-18T06:08:13;24.40;99.90
35796;DHT22;21916;52.428;13.302;2022-08-18T06:10:47;24.40;99.90
35796;DHT22;21916;52.428;13.302;2022-08-18T06:13:13;24.30;99.90
35796;DHT22;21916;52.428;13.302;2022-08-18T06:24:32;24.50;99.90
35796;DHT22;21916;52.428;13.302;2022-08-18T06:40:51;25.20;99.90
35796;DHT22;21916;52.428;13.302;2022-08-18T06:43:25;25.40;99.90
35796;DHT22;21916;52.428;13.302;2022-08-18T06:45:53;25.60;99.90
35796;DHT22;21916;52.428;13.302;2022-08-18T06:48:25;25.60;99.90
35796;DHT22;21916;52.428;13.302;2022-08-18T06:50:59;25.80;99.90
35796;DHT22;21916;52.428;13.302;2022-08-18T06:54:24;26.00;99.90
35796;DHT22;21916;52.428;13.302;2022-08-18T06:59:23;26.10;99.90
35796;DHT22;21916;52.428;13.302;2022-08-18T07:01:57;26.10;99.90
35796;DHT22;21916;52.428;13.302;2022-08-18T07:04:43;26.20;99.90
35796;DHT22;21916;52.428;13.302;2022-08-18T07:07:40;26.40;99.90
35796;DHT22;21916;52.428;13.302;2022-08-18T07:12:41;26.70;99.60
35796;DHT22;21916;52.428;13.302;2022-08-18T07:15:11;26.80;99.30
35796;DHT22;21916;52.428;13.302;2022-08-18T07:17:37;26.80;99.30
35796;DHT22;21916;52.428;13.302;2022-08-18T07:20:19;27.00;99.40
35796;DHT22;21916;52.428;13.302;2022-08-18T07:23:01;27.10;99.20
35796;DHT22;21916;52.428;13.302;2022-08-18T07:25:38;27.10;99.10
35796;DHT22;21916;52.428;13.302;2022-08-18T07:28:04;27.30;98.70
35796;DHT22;21916;52.428;13.302;2022-08-18T07:30:34;27.20;98.10
35796;DHT22;21916;52.428;13.302;2022-08-18T07:33:17;27.20;98.20
35796;DHT22;21916;52.428;13.302;2022-08-18T07:35:51;27.30;98.60
35796;DHT22;21916;52.428;13.302;2022-08-18T07:43:28;27.70;98.10
35796;DHT22;21916;52.428;13.302;2022-08-18T07:46:11;27.80;98.40
35796;DHT22;21916;52.428;13.302;2022-08-18T07:48:38;28.00;97.90
35796;DHT22;21916;52.428;13.302;2022-08-18T07:51:24;28.00;97.60
35796;DHT22;21916;52.428;13.302;2022-08-18T07:59:06;28.10;97.60
35796;DHT22;21916;52.428;13.302;2022-08-18T08:04:29;28.00;97.60
35796;DHT22;21916;52.428;13.302;2022-08-18T08:07:07;27.90;98.00
35796;DHT22;21916;52.428;13.302;2022-08-18T08:10:09;27.60;98.00
35796;DHT22;21916;52.428;13.302;2022-08-18T08:18:14;27.70;97.80
35796;DHT22;21916;52.428;13.302;2022-08-18T08:21:00;27.70;97.70
35796;DHT22;21916;52.428;13.302;2022-08-18T08:23:38;27.70;97.80
35796;DHT22;21916;52.428;13.302;2022-08-18T08:26:37;27.30;98.00
35796;DHT22;21916;52.428;13.302;2022-08-18T08:37:08;27.60;97.80
35796;DHT22;21916;52.428;13.302;2022-08-18T08:39:48;28.00;97.50
35796;DHT22;21916;52.428;13.302;2022-08-18T08:45:07;28.10;97.50
35796;DHT22;21916;52.428;13.302;2022-08-18T08:50:20;28.30;97.10
35796;DHT22;21916;52.428;13.302;2022-08-18T08:53:05;28.40;97.40
35796;DHT22;21916;52.428;13.302;2022-08-18T08:55:40;28.60;97.30
35796;DHT22;21916;52.428;13.302;2022-08-18T08:58:31;28.60;97.20
35796;DHT22;21916;52.428;13.302;2022-08-18T09:03:55;28.40;97.50
35796;DHT22;21916;52.428;13.302;2022-08-18T09:23:21;28.60;97.80
35796;DHT22;21916;52.428;13.302;2022-08-18T09:25:55;28.90;97.50
35796;DHT22;21916;52.428;13.302;2022-08-18T09:28:50;29.20;96.70
35796;DHT22;21916;52.428;13.302;2022-08-18T09:31:22;29.40;96.40
35796;DHT22;21916;52.428;13.302;2022-08-18T09:34:02;29.70;95.90
35796;DHT22;21916;52.428;13.302;2022-08-18T09:39:43;30.40;94.60
35796;DHT22;21916;52.428;13.302;2022-08-18T09:42:54;30.80;94.50
35796;DHT22;21916;52.428;13.302;2022-08-18T09:48:50;31.20;93.50
35796;DHT22;21916;52.428;13.302;2022-08-18T09:56:14;32.10;92.10
35796;DHT22;21916;52.428;13.302;2022-08-18T09:58:58;32.30;91.10
35796;DHT22;21916;52.428;13.302;2022-08-18T10:01:31;32.40;91.20
35796;DHT22;21916;52.428;13.302;2022-08-18T10:06:44;32.50;90.80
35796;DHT22;21916;52.428;13.302;2022-08-18T10:20:29;33.20;90.00
35796;DHT22;21916;52.428;13.302;2022-08-18T10:22:57;33.30;87.60
35796;DHT22;21916;52.428;13.302;2022-08-18T10:25:55;32.80;88.90
35796;DHT22;21916;52.428;13.302;2022-08-18T10:28:53;33.20;88.10
35796;DHT22;21916;52.428;13.302;2022-08-18T10:31:22;33.70;87.70
35796;DHT22;21916;52.428;13.302;2022-08-18T10:34:09;33.90;86.10
35796;DHT22;21916;52.428;13.302;2022-08-18T10:39:20;34.60;84.40
35796;DHT22;21916;52.428;13.302;2022-08-18T10:42:03;34.80;82.90
35796;DHT22;21916;52.428;13.302;2022-08-18T10:44:33;35.00;81.90
35796;DHT22;21916;52.428;13.302;2022-08-18T10:47:02;35.20;80.90
35796;DHT22;21916;52.428;13.302;2022-08-18T10:49:30;35.20;79.90
35796;DHT22;21916;52.428;13.302;2022-08-18T10:52:04;35.60;78.30
35796;DHT22;21916;52.428;13.302;2022-08-18T11:00:01;37.20;75.90
35796;DHT22;21916;52.428;13.302;2022-08-18T11:04:55;38.00;72.80
35796;DHT22;21916;52.428;13.302;2022-08-18T11:07:25;38.50;72.20
35796;DHT22;21916;52.428;13.302;2022-08-18T11:09:54;39.50;69.50
35796;DHT22;21916;52.428;13.302;2022-08-18T11:15:18;41.40;65.70
35796;DHT22;21916;52.428;13.302;2022-08-18T11:20:38;44.20;60.80
35796;DHT22;21916;52.428;13.302;2022-08-18T11:23:12;45.30;58.10
35796;DHT22;21916;52.428;13.302;2022-08-18T11:25:39;45.50;56.00
35796;DHT22;21916;52.428;13.302;2022-08-18T11:28:29;46.50;56.00
35796;DHT22;21916;52.428;13.302;2022-08-18T11:30:55;46.80;53.80
35796;DHT22;21916;52.428;13.302;2022-08-18T11:33:22;47.40;53.70
35796;DHT22;21916;52.428;13.302;2022-08-18T11:35:54;47.40;52.00
35796;DHT22;21916;52.428;13.302;2022-08-18T11:38:27;46.90;51.70
35796;DHT22;21916;52.428;13.302;2022-08-18T11:41:17;46.80;51.30
35796;DHT22;21916;52.428;13.302;2022-08-18T11:43:44;47.80;50.90
35796;DHT22;21916;52.428;13.302;2022-08-18T11:48:49;47.60;49.00
35796;DHT22;21916;52.428;13.302;2022-08-18T11:58:49;45.10;49.30
35796;DHT22;21916;52.428;13.302;2022-08-18T12:06:56;42.10;51.40
35796;DHT22;21916;52.428;13.302;2022-08-18T12:15:22;40.70;53.10
35796;DHT22;21916;52.428;13.302;2022-08-18T12:17:46;41.60;52.50
35796;DHT22;21916;52.428;13.302;2022-08-18T12:20:14;42.30;51.60
35796;DHT22;21916;52.428;13.302;2022-08-18T12:22:42;43.30;50.00
35796;DHT22;21916;52.428;13.302;2022-08-18T12:25:12;44.50;49.10
35796;DHT22;21916;52.428;13.302;2022-08-18T12:27:39;44.20;48.50
35796;DHT22;21916;52.428;13.302;2022-08-18T12:30:06;43.40;49.30
35796;DHT22;21916;52.428;13.302;2022-08-18T12:32:33;43.30;48.90
35796;DHT22;21916;52.428;13.302;2022-08-18T12:35:00;43.90;48.90
35796;DHT22;21916;52.428;13.302;2022-08-18T12:37:28;45.10;47.40
35796;DHT22;21916;52.428;13.302;2022-08-18T12:39:56;46.10;47.70
35796;DHT22;21916;52.428;13.302;2022-08-18T12:42:23;47.00;48.50
35796;DHT22;21916;52.428;13.302;2022-08-18T12:44:49;47.00;48.80
35796;DHT22;21916;52.428;13.302;2022-08-18T12:47:19;47.70;48.70
35796;DHT22;21916;52.428;13.302;2022-08-18T12:49:46;47.90;48.30
35796;DHT22;21916;52.428;13.302;2022-08-18T12:52:13;46.80;47.80
35796;DHT22;21916;52.428;13.302;2022-08-18T12:54:39;44.80;49.00
35796;DHT22;21916;52.428;13.302;2022-08-18T12:57:12;44.20;49.50
35796;DHT22;21916;52.428;13.302;2022-08-18T12:59:39;41.60;51.10
35796;DHT22;21916;52.428;13.302;2022-08-18T13:02:04;40.60;51.90
35796;DHT22;21916;52.428;13.302;2022-08-18T13:04:31;41.10;52.30
35796;DHT22;21916;52.428;13.302;2022-08-18T13:07:00;41.20;52.10
35796;DHT22;21916;52.428;13.302;2022-08-18T13:09:27;41.20;52.20
35796;DHT22;21916;52.428;13.302;2022-08-18T13:11:53;41.30;51.80
35796;DHT22;21916;52.428;13.302;2022-08-18T13:14:19;40.40;52.40
35796;DHT22;21916;52.428;13.302;2022-08-18T13:16:45;39.50;53.20
35796;DHT22;21916;52.428;13.302;2022-08-18T13:19:14;39.90;52.90
35796;DHT22;21916;52.428;13.302;2022-08-18T13:21:40;40.70;52.60
35796;DHT22;21916;52.428;13.302;2022-08-18T13:24:07;40.40;51.80
35796;DHT22;21916;52.428;13.302;2022-08-18T13:26:38;40.80;52.40
35796;DHT22;21916;52.428;13.302;2022-08-18T13:29:06;41.10;51.80
35796;DHT22;21916;52.428;13.302;2022-08-18T13:31:32;40.90;51.40
35796;DHT22;21916;52.428;13.302;2022-08-18T13:33:58;39.40;52.40
35796;DHT22;21916;52.428;13.302;2022-08-18T13:36:27;38.90;52.50
35796;DHT22;21916;52.428;13.302;2022-08-18T13:41:38;37.80;54.00
35796;DHT22;21916;52.428;13.302;2022-08-18T13:44:06;37.70;54.40
35796;DHT22;21916;52.428;13.302;2022-08-18T13:46:32;38.00;53.80
35796;DHT22;21916;52.428;13.302;2022-08-18T13:48:58;39.50;52.50
35796;DHT22;21916;52.428;13.302;2022-08-18T13:51:27;39.10;51.80
35796;DHT22;21916;52.428;13.302;2022-08-18T13:54:02;37.90;52.80
35796;DHT22;21916;52.428;13.302;2022-08-18T13:56:33;36.90;54.10
35796;DHT22;21916;52.428;13.302;2022-08-18T13:58:59;36.30;55.10
35796;DHT22;21916;52.428;13.302;2022-08-18T14:01:26;35.40;55.80
35796;DHT22;21916;52.428;13.302;2022-08-18T14:03:52;35.30;56.40
35796;DHT22;21916;52.428;13.302;2022-08-18T14:06:18;35.50;56.00
35796;DHT22;21916;52.428;13.302;2022-08-18T14:08:45;36.00;56.10
35796;DHT22;21916;52.428;13.302;2022-08-18T14:11:11;36.40;55.30
35796;DHT22;21916;52.428;13.302;2022-08-18T14:13:37;36.30;55.20
35796;DHT22;21916;52.428;13.302;2022-08-18T14:16:03;36.40;55.90
35796;DHT22;21916;52.428;13.302;2022-08-18T14:18:29;36.50;56.40
35796;DHT22;21916;52.428;13.302;2022-08-18T14:20:56;36.40;57.00
35796;DHT22;21916;52.428;13.302;2022-08-18T14:23:40;36.10;56.70
35796;DHT22;21916;52.428;13.302;2022-08-18T14:26:25;36.10;57.20
35796;DHT22;21916;52.428;13.302;2022-08-18T14:29:10;36.90;56.60
35796;DHT22;21916;52.428;13.302;2022-08-18T14:31:35;37.00;56.50
35796;DHT22;21916;52.428;13.302;2022-08-18T14:34:01;36.80;56.60
35796;DHT22;21916;52.428;13.302;2022-08-18T14:36:27;36.50;56.40
35796;DHT22;21916;52.428;13.302;2022-08-18T14:38:53;36.40;57.40
35796;DHT22;21916;52.428;13.302;2022-08-18T14:41:19;36.40;57.50
35796;DHT22;21916;52.428;13.302;2022-08-18T14:43:45;36.60;57.40
35796;DHT22;21916;52.428;13.302;2022-08-18T14:46:11;37.70;56.80
35796;DHT22;21916;52.428;13.302;2022-08-18T14:48:39;38.00;56.10
35796;DHT22;21916;52.428;13.302;2022-08-18T14:51:07;38.10;56.30
35796;DHT22;21916;52.428;13.302;2022-08-18T14:53:34;37.10;56.80
35796;DHT22;21916;52.428;13.302;2022-08-18T14:56:02;37.80;56.60
35796;DHT22;21916;52.428;13.302;2022-08-18T14:58:30;37.60;55.90
35796;DHT22;21916;52.428;13.302;2022-08-18T15:00:59;36.80;56.70
35796;DHT22;21916;52.428;13.302;2022-08-18T15:03:27;35.90;57.40
35796;DHT22;21916;52.428;13.302;2022-08-18T15:05:53;35.10;59.00
35796;DHT22;21916;52.428;13.302;2022-08-18T15:08:20;34.60;59.70
35796;DHT22;21916;52.428;13.302;2022-08-18T15:10:46;34.40;60.10
35796;DHT22;21916;52.428;13.302;2022-08-18T15:13:12;34.40;60.80
35796;DHT22;21916;52.428;13.302;2022-08-18T15:15:38;34.50;60.40
35796;DHT22;21916;52.428;13.302;2022-08-18T15:18:04;33.80;61.00
35796;DHT22;21916;52.428;13.302;2022-08-18T15:20:30;33.80;61.50
35796;DHT22;21916;52.428;13.302;2022-08-18T15:23:01;33.80;62.30
35796;DHT22;21916;52.428;13.302;2022-08-18T15:25:48;33.50;62.30
35796;DHT22;21916;52.428;13.302;2022-08-18T15:28:17;33.20;62.20
35796;DHT22;21916;52.428;13.302;2022-08-18T15:30:45;33.30;62.80
35796;DHT22;21916;52.428;13.302;2022-08-18T15:33:12;33.30;61.70
35796;DHT22;21916;52.428;13.302;2022-08-18T15:35:42;33.40;61.90
35796;DHT22;21916;52.428;13.302;2022-08-18T15:38:09;33.60;62.70
35796;DHT22;21916;52.428;13.302;2022-08-18T15:40:47;33.50;62.80
35796;DHT22;21916;52.428;13.302;2022-08-18T15:43:14;33.40;63.40
35796;DHT22;21916;52.428;13.302;2022-08-18T15:45:41;33.30;63.40
35796;DHT22;21916;52.428;13.302;2022-08-18T15:48:10;33.10;64.00
35796;DHT22;21916;52.428;13.302;2022-08-18T15:50:36;33.00;63.80
35796;DHT22;21916;52.428;13.302;2022-08-18T15:53:03;33.10;63.90
35796;DHT22;21916;52.428;13.302;2022-08-18T15:55:33;33.00;63.30
35796;DHT22;21916;52.428;13.302;2022-08-18T15:58:00;33.10;63.40
35796;DHT22;21916;52.428;13.302;2022-08-18T16:00:31;33.30;63.50
35796;DHT22;21916;52.428;13.302;2022-08-18T16:03:00;33.20;63.60
35796;DHT22;21916;52.428;13.302;2022-08-18T16:05:33;32.80;63.70
35796;DHT22;21916;52.428;13.302;2022-08-18T16:08:00;32.90;64.20
35796;DHT22;21916;52.428;13.302;2022-08-18T16:10:28;33.10;63.30
35796;DHT22;21916;52.428;13.302;2022-08-18T16:12:54;33.10;63.80
35796;DHT22;21916;52.428;13.302;2022-08-18T16:15:26;33.00;63.30
35796;DHT22;21916;52.428;13.302;2022-08-18T16:17:54;33.30;63.10
35796;DHT22;21916;52.428;13.302;2022-08-18T16:20:23;33.50;63.70
35796;DHT22;21916;52.428;13.302;2022-08-18T16:22:49;33.40;63.50
35796;DHT22;21916;52.428;13.302;2022-08-18T16:25:16;33.20;63.00
35796;DHT22;21916;52.428;13.302;2022-08-18T16:27:42;32.70;63.20
35796;DHT22;21916;52.428;13.302;2022-08-18T16:30:10;32.50;64.60
35796;DHT22;21916;52.428;13.302;2022-08-18T16:32:36;32.60;64.80
35796;DHT22;21916;52.428;13.302;2022-08-18T16:35:03;32.40;65.30
35796;DHT22;21916;52.428;13.302;2022-08-18T16:37:29;32.20;64.50
35796;DHT22;21916;52.428;13.302;2022-08-18T16:39:55;32.20;66.00
35796;DHT22;21916;52.428;13.302;2022-08-18T16:42:21;32.00;66.10
35796;DHT22;21916;52.428;13.302;2022-08-18T16:44:48;31.60;68.00
35796;DHT22;21916;52.428;13.302;2022-08-18T16:47:14;31.30;68.80
35796;DHT22;21916;52.428;13.302;2022-08-18T16:49:46;30.80;69.90
35796;DHT22;21916;52.428;13.302;2022-08-18T16:52:17;30.60;71.30
35796;DHT22;21916;52.428;13.302;2022-08-18T16:54:45;30.30;73.00
35796;DHT22;21916;52.428;13.302;2022-08-18T16:57:11;30.10;73.90
35796;DHT22;21916;52.428;13.302;2022-08-18T16:59:38;29.90;75.20
35796;DHT22;21916;52.428;13.302;2022-08-18T17:02:23;29.50;76.00
35796;DHT22;21916;52.428;13.302;2022-08-18T17:05:08;29.10;77.80
35796;DHT22;21916;52.428;13.302;2022-08-18T17:07:36;28.70;79.20
35796;DHT22;21916;52.428;13.302;2022-08-18T17:10:04;28.60;80.00
35796;DHT22;21916;52.428;13.302;2022-08-18T17:12:31;28.50;81.50
35796;DHT22;21916;52.428;13.302;2022-08-18T17:14:57;28.20;82.10
35796;DHT22;21916;52.428;13.302;2022-08-18T17:17:23;28.10;83.50
35796;DHT22;21916;52.428;13.302;2022-08-18T17:19:49;27.80;84.70
35796;DHT22;21916;52.428;13.302;2022-08-18T17:22:16;27.60;86.00
35796;DHT22;21916;52.428;13.302;2022-08-18T17:24:43;27.60;87.50
35796;DHT22;21916;52.428;13.302;2022-08-18T17:27:21;27.50;88.40
35796;DHT22;21916;52.428;13.302;2022-08-18T17:30:07;27.50;90.00
35796;DHT22;21916;52.428;13.302;2022-08-18T17:32:37;27.30;90.80
35796;DHT22;21916;52.428;13.302;2022-08-18T17:35:14;27.10;92.00
35796;DHT22;21916;52.428;13.302;2022-08-18T17:37:52;26.90;93.40
35796;DHT22;21916;52.428;13.302;2022-08-18T17:40:27;26.70;94.60
35796;DHT22;21916;52.428;13.302;2022-08-18T17:42:54;26.60;96.00
35796;DHT22;21916;52.428;13.302;2022-08-18T17:45:20;26.40;97.00
35796;DHT22;21916;52.428;13.302;2022-08-18T17:47:54;26.20;98.10
35796;DHT22;21916;52.428;13.302;2022-08-18T17:50:33;26.20;98.80
35796;DHT22;21916;52.428;13.302;2022-08-18T17:53:19;26.00;99.90
35796;DHT22;21916;52.428;13.302;2022-08-18T17:56:13;25.80;99.90
35796;DHT22;21916;52.428;13.302;2022-08-18T18:01:08;25.70;99.90
35796;DHT22;21916;52.428;13.302;2022-08-18T18:03:34;25.70;99.90
35796;DHT22;21916;52.428;13.302;2022-08-18T18:06:18;25.70;99.90
35796;DHT22;21916;52.428;13.302;2022-08-18T18:08:58;25.60;99.90
35796;DHT22;21916;52.428;13.302;2022-08-18T18:11:28;25.60;99.90
35796;DHT22;21916;52.428;13.302;2022-08-18T18:14:00;25.50;99.90
35796;DHT22;21916;52.428;13.302;2022-08-18T18:17:04;25.40;99.90